Time;durP1;ratioP1;P1;durP2;ratioP2;P2;SDS_P1;SDS_P2;PMS_P1;PMS_P2;Temp;Humidity;BMP_temperature;BMP_pressure;BME280_temperature;BME280_humidity;BME280_pressure;Samples;Min_cycle;Max_cycle;Signal;HPM_P1;HPM_P2
2023/11/07 00:01:46;;;;;;;0.97;0.60;;;11.40;99.90;;;;;;5054517;28;20205;-63
2023/11/07 00:04:14;;;;;;;1.40;0.60;;;11.50;99.90;;;;;;5038515;28;20197;-62
2023/11/07 00:06:42;;;;;;;0.83;0.50;;;11.50;99.90;;;;;;5054605;28;20202;-62
2023/11/07 00:09:09;;;;;;;2.77;0.50;;;11.50;99.90;;;;;;5054618;28;20201;-63
2023/11/07 00:11:36;;;;;;;0.77;0.40;;;11.40;99.90;;;;;;5054525;28;20285;-63
2023/11/07 00:14:03;;;;;;;0.63;0.50;;;11.40;99.90;;;;;;5054248;28;20212;-63
2023/11/07 00:16:31;;;;;;;1.07;0.40;;;11.30;99.90;;;;;;5054078;28;20212;-62
2023/11/07 00:18:57;;;;;;;0.70;0.40;;;11.20;99.90;;;;;;5054020;28;20225;-62
2023/11/07 00:21:24;;;;;;;0.93;0.50;;;11.10;99.90;;;;;;5054216;28;20206;-63
2023/11/07 00:23:52;;;;;;;1.23;0.50;;;11.10;99.90;;;;;;5054245;28;20205;-63
2023/11/07 00:26:20;;;;;;;0.63;0.47;;;11.00;99.90;;;;;;5054105;28;20225;-63
2023/11/07 00:28:47;;;;;;;0.93;0.50;;;11.00;99.90;;;;;;5054217;28;20309;-63
2023/11/07 00:31:14;;;;;;;1.87;0.70;;;10.90;99.90;;;;;;5038011;28;20284;-63
2023/11/07 00:33:41;;;;;;;1.10;0.50;;;10.90;99.90;;;;;;5054069;28;20233;-62
2023/11/07 00:36:08;;;;;;;1.83;0.50;;;10.80;99.90;;;;;;5054255;28;20210;-63
2023/11/07 00:38:35;;;;;;;0.67;0.50;;;10.80;99.90;;;;;;5053942;28;20617;-64
2023/11/07 00:41:03;;;;;;;1.50;0.50;;;10.80;99.90;;;;;;5054085;28;20294;-63
2023/11/07 00:43:30;;;;;;;2.23;0.60;;;10.80;99.90;;;;;;5053938;28;20210;-62
2023/11/07 00:45:57;;;;;;;3.80;0.70;;;10.80;99.90;;;;;;5053625;28;20213;-62
2023/11/07 00:48:23;;;;;;;3.63;0.60;;;10.70;99.90;;;;;;5053478;28;20247;-64
2023/11/07 00:50:50;;;;;;;1.60;0.60;;;10.70;99.90;;;;;;5054075;28;20214;-63
2023/11/07 00:53:17;;;;;;;1.33;0.67;;;10.70;99.90;;;;;;5053934;28;20635;-63
2023/11/07 00:55:44;;;;;;;2.17;0.67;;;10.70;99.90;;;;;;5053638;28;20588;-63
2023/11/07 00:58:12;;;;;;;2.87;0.57;;;10.70;99.90;;;;;;5053141;28;20610;-63
2023/11/07 01:00:38;;;;;;;1.23;0.53;;;10.70;99.90;;;;;;5052350;28;20582;-64
2023/11/07 01:03:05;;;;;;;3.30;1.10;;;10.80;99.90;;;;;;5053202;28;20703;-65
2023/11/07 01:05:32;;;;;;;1.33;0.70;;;10.90;99.90;;;;;;5053459;28;20572;-63
2023/11/07 01:08:00;;;;;;;0.87;0.50;;;10.80;99.90;;;;;;5053463;28;20217;-62
2023/11/07 01:10:27;;;;;;;1.17;0.60;;;10.80;99.90;;;;;;5053533;28;20213;-64
2023/11/07 01:12:54;;;;;;;0.67;0.40;;;10.70;99.90;;;;;;5052859;28;20213;-65
2023/11/07 01:15:23;;;;;;;0.97;0.57;;;10.60;99.90;;;;;;5053196;28;20689;-63
2023/11/07 01:17:49;;;;;;;1.43;0.60;;;10.50;99.90;;;;;;5053106;28;20226;-63
2023/11/07 01:20:17;;;;;;;1.43;0.70;;;10.50;99.90;;;;;;5053312;28;20233;-63
2023/11/07 01:22:44;;;;;;;1.57;0.60;;;10.50;99.90;;;;;;5053068;28;20205;-63
2023/11/07 01:25:11;;;;;;;0.67;0.50;;;10.50;99.90;;;;;;5052928;28;20202;-63
2023/11/07 01:27:38;;;;;;;2.07;0.60;;;10.40;99.90;;;;;;5053211;28;20637;-63
2023/11/07 01:30:05;;;;;;;1.63;0.80;;;10.40;99.90;;;;;;5052635;28;20213;-62
2023/11/07 01:32:34;;;;;;;0.70;0.60;;;10.50;99.90;;;;;;5053018;28;20224;-63
2023/11/07 01:35:00;;;;;;;5.20;0.70;;;10.50;99.90;;;;;;5052875;28;20213;-63
2023/11/07 01:37:27;;;;;;;2.43;0.83;;;10.40;99.90;;;;;;5052826;28;20257;-62
2023/11/07 01:39:54;;;;;;;1.43;0.40;;;10.40;99.90;;;;;;5052769;28;20210;-63
2023/11/07 01:42:20;;;;;;;2.03;0.70;;;10.30;99.90;;;;;;5052622;28;20202;-64
2023/11/07 01:44:50;;;;;;;2.13;0.70;;;10.20;99.90;;;;;;5052755;28;20573;-63
2023/11/07 01:47:18;;;;;;;1.00;0.50;;;10.20;99.90;;;;;;5036847;28;20225;-62
2023/11/07 01:49:47;;;;;;;2.27;0.77;;;10.20;99.90;;;;;;5052737;28;20300;-63
2023/11/07 01:52:17;;;;;;;1.80;0.60;;;10.30;99.90;;;;;;5052330;28;20202;-63
2023/11/07 01:54:45;;;;;;;1.13;0.53;;;10.30;99.90;;;;;;5052642;28;20675;-63
2023/11/07 01:57:12;;;;;;;2.13;0.73;;;10.30;99.90;;;;;;5052722;28;20595;-62
2023/11/07 01:59:39;;;;;;;6.00;1.03;;;10.40;99.90;;;;;;5052661;28;20484;-62
2023/11/07 02:02:10;;;;;;;1.23;0.60;;;10.40;99.90;;;;;;5052107;28;20693;-63
2023/11/07 02:04:37;;;;;;;1.47;0.60;;;10.40;99.90;;;;;;5052548;28;20667;-62
2023/11/07 02:07:06;;;;;;;2.53;0.70;;;10.30;99.90;;;;;;5052267;28;20601;-62
2023/11/07 02:09:33;;;;;;;1.00;0.50;;;10.30;99.90;;;;;;5052202;28;20205;-63
2023/11/07 02:12:00;;;;;;;1.50;0.63;;;10.30;99.90;;;;;;5051653;28;20228;-62
2023/11/07 02:14:27;;;;;;;2.80;0.67;;;10.20;99.90;;;;;;5052359;28;20202;-61
2023/11/07 02:16:54;;;;;;;1.57;0.50;;;10.10;99.90;;;;;;5052037;28;20279;-63
2023/11/07 02:19:21;;;;;;;1.50;0.67;;;10.00;99.90;;;;;;5052029;28;20523;-64
2023/11/07 02:21:48;;;;;;;1.93;0.90;;;9.90;99.90;;;;;;5052031;28;20207;-63
2023/11/07 02:24:16;;;;;;;2.80;1.00;;;9.90;99.90;;;;;;5051696;28;20202;-64
2023/11/07 02:26:43;;;;;;;5.57;1.00;;;9.80;99.90;;;;;;5052364;28;20244;-63
2023/11/07 02:29:10;;;;;;;1.07;0.50;;;9.80;99.90;;;;;;5051943;28;20228;-63
2023/11/07 02:31:37;;;;;;;3.40;0.70;;;9.90;99.90;;;;;;5052176;28;20296;-63
2023/11/07 02:34:05;;;;;;;2.10;0.67;;;9.90;99.90;;;;;;5051822;28;20206;-62
2023/11/07 02:36:32;;;;;;;1.80;0.80;;;9.80;99.90;;;;;;5051706;28;20292;-62
2023/11/07 02:38:59;;;;;;;1.87;0.53;;;9.80;99.90;;;;;;5051939;28;20222;-62
2023/11/07 02:41:27;;;;;;;2.43;0.70;;;9.80;99.90;;;;;;5051970;28;20205;-62
2023/11/07 02:43:54;;;;;;;1.70;0.70;;;9.90;99.90;;;;;;5051585;28;20228;-62
2023/11/07 02:46:21;;;;;;;1.30;0.50;;;9.90;99.90;;;;;;5051849;28;20209;-62
2023/11/07 02:48:48;;;;;;;2.93;0.60;;;9.90;99.90;;;;;;5051499;28;20202;-63
2023/11/07 02:51:17;;;;;;;2.33;0.67;;;9.90;99.90;;;;;;5051554;28;20201;-62
2023/11/07 02:53:46;;;;;;;0.53;0.47;;;9.90;99.90;;;;;;5051297;28;20702;-62
2023/11/07 02:56:13;;;;;;;2.00;0.53;;;9.90;99.90;;;;;;5051430;28;20212;-62
2023/11/07 02:58:42;;;;;;;1.10;0.80;;;9.90;99.90;;;;;;5051439;28;20225;-63
2023/11/07 03:01:08;;;;;;;3.30;0.60;;;9.80;99.90;;;;;;5051436;28;20205;-63
2023/11/07 03:03:35;;;;;;;1.77;0.57;;;9.80;99.90;;;;;;5051259;28;20678;-64
2023/11/07 03:06:02;;;;;;;1.03;0.53;;;9.80;99.90;;;;;;5051499;28;20205;-64
2023/11/07 03:08:29;;;;;;;0.57;0.40;;;9.70;99.90;;;;;;5051338;28;20221;-63
2023/11/07 03:10:55;;;;;;;1.03;0.60;;;9.70;99.90;;;;;;5051703;28;20209;-63
2023/11/07 03:13:22;;;;;;;0.90;0.50;;;9.80;99.90;;;;;;5050990;28;20198;-63
2023/11/07 03:15:50;;;;;;;0.37;0.37;;;9.80;99.90;;;;;;5051378;28;20208;-62
2023/11/07 03:18:17;;;;;;;0.57;0.50;;;9.80;99.90;;;;;;5051029;28;20232;-61
2023/11/07 03:20:44;;;;;;;2.03;0.50;;;9.80;99.90;;;;;;5051617;28;20206;-61
2023/11/07 03:23:10;;;;;;;1.80;0.53;;;9.90;99.90;;;;;;5050780;28;20205;-62
2023/11/07 03:25:37;;;;;;;4.00;0.70;;;10.00;99.90;;;;;;5051033;28;20209;-62
2023/11/07 03:28:04;;;;;;;2.17;0.60;;;10.10;99.90;;;;;;5050906;28;20229;-62
2023/11/07 03:30:31;;;;;;;1.47;0.70;;;10.20;99.90;;;;;;5051625;28;20229;-63
2023/11/07 03:32:59;;;;;;;1.00;0.60;;;10.40;99.90;;;;;;5050891;28;20232;-62
2023/11/07 03:35:27;;;;;;;1.33;0.97;;;10.50;99.90;;;;;;5051246;28;20209;-62
2023/11/07 03:37:53;;;;;;;1.60;0.70;;;10.50;99.90;;;;;;5051059;28;20229;-63
2023/11/07 03:40:20;;;;;;;1.00;0.43;;;10.50;99.90;;;;;;5051113;28;20205;-63
2023/11/07 03:42:47;;;;;;;2.20;0.50;;;10.60;99.90;;;;;;5051044;28;20217;-62
2023/11/07 03:45:14;;;;;;;1.63;0.60;;;10.60;99.90;;;;;;5050916;28;20205;-62
2023/11/07 03:47:41;;;;;;;1.47;0.50;;;10.60;99.90;;;;;;5051512;28;20765;-62
2023/11/07 03:50:10;;;;;;;2.10;0.50;;;10.60;99.90;;;;;;5051192;28;20462;-63
2023/11/07 03:52:37;;;;;;;3.00;0.73;;;10.50;99.90;;;;;;5050960;28;20229;-64
2023/11/07 03:55:04;;;;;;;1.20;0.47;;;10.40;99.90;;;;;;5050990;28;20237;-63
2023/11/07 03:57:31;;;;;;;1.50;0.60;;;10.40;99.90;;;;;;5050836;28;20217;-64
2023/11/07 03:59:58;;;;;;;1.40;0.40;;;10.20;99.90;;;;;;5050631;28;20734;-64
2023/11/07 04:02:25;;;;;;;2.30;0.70;;;10.20;99.90;;;;;;5050530;28;20206;-62
2023/11/07 04:04:53;;;;;;;0.80;0.60;;;10.20;99.90;;;;;;5051064;28;20300;-62
2023/11/07 04:07:21;;;;;;;0.90;0.80;;;10.20;99.90;;;;;;5034594;28;20666;-63
2023/11/07 04:09:48;;;;;;;1.40;0.60;;;10.10;99.90;;;;;;5050867;28;20209;-62
2023/11/07 04:12:15;;;;;;;2.90;0.73;;;10.00;99.90;;;;;;5050653;28;20233;-64
2023/11/07 04:14:43;;;;;;;3.23;2.33;;;10.00;99.90;;;;;;5050782;28;20205;-62
2023/11/07 04:17:10;;;;;;;0.63;0.53;;;10.00;99.90;;;;;;5068374;22;20288;-58
2023/11/07 04:19:37;;;;;;;1.73;0.70;;;9.90;99.90;;;;;;5061945;28;20365;-58
2023/11/07 04:22:04;;;;;;;1.50;0.60;;;9.90;99.90;;;;;;5060524;28;20201;-58
2023/11/07 04:24:32;;;;;;;1.43;0.50;;;9.90;99.90;;;;;;5058636;28;20285;-58
2023/11/07 04:26:59;;;;;;;2.67;0.73;;;9.80;99.90;;;;;;5058869;28;20213;-61
2023/11/07 04:29:26;;;;;;;1.90;0.60;;;9.70;99.90;;;;;;5070231;28;20197;-59
2023/11/07 04:31:52;;;;;;;2.10;0.60;;;9.80;99.90;;;;;;5070472;28;20213;-60
2023/11/07 04:34:19;;;;;;;1.60;0.60;;;9.80;99.90;;;;;;5069980;28;20209;-58
2023/11/07 04:36:46;;;;;;;1.90;1.07;;;9.80;99.90;;;;;;5073620;28;20211;-60
2023/11/07 04:39:13;;;;;;;1.73;1.00;;;9.90;99.90;;;;;;5073564;28;20228;-58
2023/11/07 04:41:41;;;;;;;2.00;0.70;;;10.00;99.90;;;;;;5073610;28;20228;-59
2023/11/07 04:44:08;;;;;;;1.73;0.60;;;10.00;99.90;;;;;;5073812;28;20263;-59
2023/11/07 04:46:39;;;;;;;1.97;1.00;;;10.00;99.90;;;;;;5073855;28;20201;-59
2023/11/07 04:49:07;;;;;;;0.87;0.60;;;10.00;99.90;;;;;;5073446;28;20225;-58
2023/11/07 04:51:34;;;;;;;1.13;0.70;;;10.00;99.90;;;;;;5073574;28;20235;-60
2023/11/07 04:54:01;;;;;;;3.30;2.10;;;10.00;99.90;;;;;;5073616;28;20209;-60
2023/11/07 04:56:28;;;;;;;0.60;0.43;;;10.00;99.90;;;;;;5073406;28;20205;-58
2023/11/07 04:58:56;;;;;;;3.53;0.80;;;10.00;99.90;;;;;;5073252;28;20237;-59
2023/11/07 05:01:23;;;;;;;1.10;0.50;;;10.00;99.90;;;;;;5057525;28;20281;-59
2023/11/07 05:03:49;;;;;;;1.90;0.90;;;10.00;99.90;;;;;;5073459;28;20216;-59
2023/11/07 05:06:18;;;;;;;1.70;1.07;;;9.80;99.90;;;;;;5072963;28;20209;-60
2023/11/07 05:08:45;;;;;;;0.70;0.50;;;9.80;99.90;;;;;;5072840;28;20675;-59
2023/11/07 05:11:12;;;;;;;2.50;1.30;;;9.80;99.90;;;;;;5073219;28;20205;-59
2023/11/07 05:13:39;;;;;;;2.50;0.70;;;9.80;99.90;;;;;;5073134;28;20287;-59
2023/11/07 05:16:08;;;;;;;2.47;0.90;;;9.80;99.90;;;;;;5072911;28;20637;-59
2023/11/07 05:18:34;;;;;;;2.10;1.10;;;9.60;99.90;;;;;;5072777;28;20228;-60
2023/11/07 05:21:01;;;;;;;2.70;1.33;;;9.60;99.90;;;;;;5072823;28;20296;-59
2023/11/07 05:23:28;;;;;;;1.60;0.80;;;9.60;99.90;;;;;;5072822;28;20205;-61
2023/11/07 05:25:55;;;;;;;3.10;1.40;;;9.50;99.90;;;;;;5073262;28;20217;-60
2023/11/07 05:28:21;;;;;;;2.10;0.60;;;9.30;99.90;;;;;;5073136;28;20248;-59
2023/11/07 05:30:48;;;;;;;3.03;1.10;;;9.20;99.90;;;;;;5072917;28;20216;-59
2023/11/07 05:33:16;;;;;;;1.60;1.03;;;9.30;99.90;;;;;;5072403;28;20205;-60
2023/11/07 05:35:44;;;;;;;1.80;0.90;;;9.20;99.90;;;;;;5072456;28;20220;-60
2023/11/07 05:38:10;;;;;;;6.60;1.90;;;9.20;99.90;;;;;;5072648;28;20229;-59
2023/11/07 05:40:37;;;;;;;1.67;0.83;;;9.20;99.90;;;;;;5072687;28;20228;-59
2023/11/07 05:43:04;;;;;;;3.73;1.90;;;9.10;99.90;;;;;;5072336;28;20232;-59
2023/11/07 05:45:31;;;;;;;3.20;1.40;;;9.10;99.90;;;;;;5072657;28;20196;-59
2023/11/07 05:47:58;;;;;;;5.27;2.37;;;9.10;99.90;;;;;;5071657;28;20224;-59
2023/11/07 05:50:26;;;;;;;2.83;1.63;;;9.10;99.90;;;;;;5072210;28;20236;-60
2023/11/07 05:52:53;;;;;;;5.37;1.37;;;9.10;99.90;;;;;;5071800;28;20311;-60
2023/11/07 05:55:21;;;;;;;2.70;1.47;;;9.20;99.90;;;;;;5072219;28;20227;-59
2023/11/07 05:57:47;;;;;;;2.37;1.30;;;9.30;99.90;;;;;;5072200;28;20232;-59
2023/11/07 06:00:15;;;;;;;1.30;0.80;;;9.40;99.90;;;;;;5071861;28;20610;-59
2023/11/07 06:02:42;;;;;;;2.83;1.10;;;9.40;99.90;;;;;;5071890;28;20580;-60
2023/11/07 06:05:09;;;;;;;4.90;3.10;;;9.50;99.90;;;;;;5072042;28;20209;-59
2023/11/07 06:07:37;;;;;;;3.40;1.57;;;9.50;99.90;;;;;;5071997;28;20229;-60
2023/11/07 06:10:04;;;;;;;3.63;2.10;;;9.50;99.90;;;;;;5071776;28;20205;-59
2023/11/07 06:12:31;;;;;;;6.03;2.30;;;9.50;99.90;;;;;;5071527;28;20251;-59
2023/11/07 06:14:58;;;;;;;2.50;1.20;;;9.40;99.90;;;;;;5071584;28;20277;-60
2023/11/07 06:17:25;;;;;;;2.53;1.60;;;9.50;99.90;;;;;;5071677;28;20306;-60
2023/11/07 06:19:51;;;;;;;1.87;1.07;;;9.50;99.90;;;;;;5071545;28;20602;-59
2023/11/07 06:22:17;;;;;;;2.07;0.93;;;9.50;99.90;;;;;;5071556;28;20212;-60
2023/11/07 06:24:46;;;;;;;1.20;0.70;;;9.50;99.90;;;;;;5072003;28;20205;-61
2023/11/07 06:27:12;;;;;;;1.30;1.00;;;9.50;99.90;;;;;;5071808;28;20643;-60
2023/11/07 06:29:42;;;;;;;2.70;1.53;;;9.50;99.90;;;;;;5071630;28;20204;-60
2023/11/07 06:32:10;;;;;;;3.70;1.30;;;9.60;99.90;;;;;;5071664;28;20645;-60
2023/11/07 06:34:36;;;;;;;2.90;1.43;;;9.70;99.90;;;;;;5071471;28;20685;-60
2023/11/07 06:37:04;;;;;;;2.53;1.30;;;9.70;99.90;;;;;;5071339;28;20721;-61
2023/11/07 06:39:30;;;;;;;2.83;1.27;;;9.80;99.90;;;;;;5071347;28;20300;-61
2023/11/07 06:41:59;;;;;;;2.53;1.57;;;9.90;99.90;;;;;;5071612;28;20272;-61
2023/11/07 06:44:25;;;;;;;3.27;1.60;;;10.10;99.90;;;;;;5071414;28;20616;-61
2023/11/07 06:46:53;;;;;;;3.40;1.90;;;10.30;99.90;;;;;;5071512;28;20205;-60
2023/11/07 06:49:20;;;;;;;1.57;0.90;;;10.40;99.90;;;;;;5071156;28;20247;-60
2023/11/07 06:51:47;;;;;;;1.70;1.17;;;10.60;99.90;;;;;;5071347;28;20212;-60
2023/11/07 06:54:13;;;;;;;3.10;1.10;;;10.70;99.90;;;;;;5071107;28;20205;-60
2023/11/07 06:56:40;;;;;;;2.40;1.80;;;10.80;99.90;;;;;;5071307;28;20585;-60
2023/11/07 06:59:09;;;;;;;2.57;1.40;;;10.80;99.90;;;;;;5069954;28;20274;-61
2023/11/07 07:01:36;;;;;;;1.80;1.20;;;10.80;99.90;;;;;;5071576;28;20204;-60
2023/11/07 07:04:03;;;;;;;1.13;0.87;;;10.90;99.90;;;;;;5070931;28;20220;-60
2023/11/07 07:06:31;;;;;;;1.93;1.00;;;10.80;99.90;;;;;;5071592;28;20212;-59
2023/11/07 07:08:58;;;;;;;2.20;1.50;;;10.90;99.90;;;;;;5071071;28;20221;-60
2023/11/07 07:11:25;;;;;;;1.27;0.50;;;11.00;99.90;;;;;;5054932;28;20204;-60
2023/11/07 07:13:52;;;;;;;1.63;0.50;;;11.10;99.90;;;;;;5070783;28;20212;-60
2023/11/07 07:16:22;;;;;;;1.47;1.07;;;11.20;99.90;;;;;;5070772;28;20216;-60
2023/11/07 07:18:49;;;;;;;1.77;0.80;;;11.30;99.90;;;;;;5070937;28;20240;-61
2023/11/07 07:21:16;;;;;;;2.53;1.50;;;11.40;99.90;;;;;;5070918;28;20225;-60
2023/11/07 07:23:46;;;;;;;1.63;0.60;;;11.50;99.90;;;;;;5071018;28;20201;-60
2023/11/07 07:26:14;;;;;;;1.53;0.47;;;11.50;99.90;;;;;;5070706;28;20625;-61
2023/11/07 07:28:41;;;;;;;2.70;1.47;;;11.60;99.90;;;;;;5070835;28;20646;-60
2023/11/07 07:31:07;;;;;;;3.37;1.57;;;11.60;99.90;;;;;;5070729;28;20228;-61
2023/11/07 07:33:37;;;;;;;2.10;0.83;;;11.70;99.90;;;;;;5071367;28;20208;-58
2023/11/07 07:36:05;;;;;;;0.80;0.70;;;11.80;99.90;;;;;;5070947;28;20201;-59
2023/11/07 07:38:32;;;;;;;0.90;0.60;;;12.00;99.90;;;;;;5070705;28;20221;-59
2023/11/07 07:40:59;;;;;;;2.50;0.83;;;12.10;99.90;;;;;;5070794;28;20722;-61
2023/11/07 07:43:26;;;;;;;1.23;0.60;;;12.30;99.90;;;;;;5054076;28;20208;-60
2023/11/07 07:45:55;;;;;;;0.40;0.40;;;12.40;99.90;;;;;;5070870;28;20287;-56
2023/11/07 07:48:22;;;;;;;0.67;0.47;;;12.60;99.90;;;;;;5071261;28;20230;-56
2023/11/07 07:50:51;;;;;;;4.30;2.30;;;12.80;99.90;;;;;;5070760;28;20204;-56
2023/11/07 07:53:20;;;;;;;0.90;0.47;;;12.90;99.90;;;;;;5070480;28;20208;-57
2023/11/07 07:55:50;;;;;;;1.27;0.70;;;13.00;99.90;;;;;;5070840;28;20209;-56
2023/11/07 07:58:18;;;;;;;4.03;0.80;;;13.10;99.90;;;;;;5070402;28;20232;-55
2023/11/07 08:00:49;;;;;;;2.43;0.90;;;13.20;99.90;;;;;;5070766;28;20248;-58
2023/11/07 08:03:16;;;;;;;1.00;0.80;;;13.30;99.90;;;;;;5070476;28;20304;-56
2023/11/07 08:05:44;;;;;;;1.20;0.67;;;13.30;99.90;;;;;;5070644;28;20197;-56
2023/11/07 08:08:14;;;;;;;1.73;0.80;;;13.30;99.90;;;;;;5070579;28;20221;-57
2023/11/07 08:10:41;;;;;;;0.90;0.57;;;13.20;99.90;;;;;;5072699;28;20220;-57
2023/11/07 08:13:09;;;;;;;2.13;0.80;;;13.20;99.90;;;;;;5074194;28;20296;-56
2023/11/07 08:15:37;;;;;;;1.07;0.57;;;13.20;99.90;;;;;;5074274;28;20201;-56
2023/11/07 08:18:06;;;;;;;0.87;0.70;;;13.20;99.90;;;;;;5073929;28;20225;-56
2023/11/07 08:20:33;;;;;;;2.20;0.80;;;13.10;99.90;;;;;;5073957;28;20677;-56
2023/11/07 08:23:01;;;;;;;2.27;0.70;;;13.10;99.90;;;;;;5073989;28;20201;-56
2023/11/07 08:25:29;;;;;;;1.97;0.60;;;13.20;99.90;;;;;;5058083;28;20263;-57
2023/11/07 08:27:56;;;;;;;1.83;0.70;;;13.30;99.90;;;;;;5074022;28;20746;-57
2023/11/07 08:30:23;;;;;;;0.97;0.60;;;13.30;99.90;;;;;;5073934;28;20211;-57
2023/11/07 08:32:51;;;;;;;1.07;0.67;;;13.10;99.90;;;;;;5073717;28;20213;-58
2023/11/07 08:35:18;;;;;;;1.47;0.80;;;13.10;99.90;;;;;;5074180;28;20213;-57
2023/11/07 08:37:47;;;;;;;0.53;0.40;;;13.10;99.90;;;;;;5073925;28;20220;-56
2023/11/07 08:40:16;;;;;;;0.60;0.50;;;13.20;99.90;;;;;;5073868;28;20232;-56
2023/11/07 08:42:44;;;;;;;3.43;0.83;;;13.40;99.90;;;;;;5074016;28;20623;-57
2023/11/07 08:45:15;;;;;;;1.50;0.70;;;13.50;99.90;;;;;;5073761;28;20227;-57
2023/11/07 08:47:43;;;;;;;1.83;0.97;;;13.70;99.90;;;;;;5074082;28;20608;-56
2023/11/07 08:50:10;;;;;;;3.33;0.90;;;13.70;99.90;;;;;;5073874;28;20291;-57
2023/11/07 08:52:37;;;;;;;1.13;0.70;;;13.70;99.90;;;;;;5073717;28;20204;-57
2023/11/07 08:55:05;;;;;;;2.67;0.80;;;13.70;99.90;;;;;;5073692;28;20301;-56
2023/11/07 08:57:32;;;;;;;2.00;0.73;;;13.70;99.90;;;;;;5073583;28;20266;-56
2023/11/07 09:00:00;;;;;;;2.00;0.80;;;13.70;99.90;;;;;;5073363;28;20221;-57
2023/11/07 09:02:27;;;;;;;2.20;0.70;;;13.80;99.90;;;;;;5073056;28;20201;-57
2023/11/07 09:04:54;;;;;;;1.63;0.80;;;13.90;99.90;;;;;;5073408;28;20720;-55
2023/11/07 09:07:22;;;;;;;4.10;1.90;;;14.10;99.90;;;;;;5073407;28;20606;-64
2023/11/07 09:09:49;;;;;;;2.08;0.77;;;14.20;99.90;;;;;;5067671;28;20441;-57
2023/11/07 09:12:15;;;;;;;1.17;0.90;;;14.40;99.90;;;;;;5072877;28;20224;-56
2023/11/07 09:14:42;;;;;;;4.03;0.90;;;14.50;99.90;;;;;;5073025;28;20631;-57
2023/11/07 09:17:12;;;;;;;2.03;0.93;;;14.50;99.90;;;;;;5072784;28;20646;-56
2023/11/07 09:19:39;;;;;;;1.33;0.70;;;14.50;99.90;;;;;;5072870;28;20662;-57
2023/11/07 09:22:07;;;;;;;1.07;0.87;;;14.40;99.90;;;;;;5072065;28;20208;-57
2023/11/07 09:24:34;;;;;;;4.50;0.80;;;14.30;99.90;;;;;;5072772;28;20201;-57
2023/11/07 09:27:00;;;;;;;1.27;0.70;;;14.40;99.90;;;;;;5072652;28;20212;-57
2023/11/07 09:29:27;;;;;;;1.13;0.67;;;14.50;99.90;;;;;;5072524;28;20216;-57
2023/11/07 09:31:54;;;;;;;1.80;0.67;;;14.60;99.90;;;;;;5072893;28;20231;-57
2023/11/07 09:34:22;;;;;;;1.67;0.83;;;14.60;99.90;;;;;;5072656;28;20201;-57
2023/11/07 09:36:49;;;;;;;1.77;0.97;;;14.80;99.90;;;;;;5072782;28;20201;-60
2023/11/07 09:39:16;;;;;;;3.73;1.20;;;14.90;99.90;;;;;;5072415;28;20213;-62
2023/11/07 09:41:45;;;;;;;1.60;0.80;;;14.90;99.90;;;;;;5072079;28;20307;-59
2023/11/07 09:44:13;;;;;;;1.20;0.73;;;15.10;99.90;;;;;;5072828;28;20274;-59
2023/11/07 09:46:41;;;;;;;7.77;1.30;;;15.10;99.90;;;;;;5073561;28;20250;-58
2023/11/07 09:49:08;;;;;;;1.87;0.80;;;15.20;99.90;;;;;;5072623;28;20693;-59
2023/11/07 09:51:37;;;;;;;3.13;0.90;;;15.20;99.90;;;;;;5072005;28;20276;-60
2023/11/07 09:54:05;;;;;;;4.50;1.10;;;15.30;99.90;;;;;;5071719;28;20224;-59
2023/11/07 09:56:39;;;;;;;4.73;1.27;;;15.40;99.90;;;;;;5055260;28;20298;-58
2023/11/07 09:59:15;;;;;;;1.87;0.97;;;15.40;99.90;;;;;;5048735;28;20237;-60
2023/11/07 10:01:42;;;;;;;8.83;1.00;;;15.50;99.90;;;;;;5052055;28;20316;-59
2023/11/07 10:04:09;;;;;;;1.80;1.00;;;15.60;99.90;;;;;;5051616;28;20210;-58
2023/11/07 10:06:37;;;;;;;1.23;0.73;;;15.50;99.90;;;;;;5051523;28;20671;-57
2023/11/07 10:09:04;;;;;;;1.33;0.70;;;15.40;99.90;;;;;;5052114;28;20230;-57
2023/11/07 10:11:44;;;;;;;1.23;0.67;;;15.40;99.90;;;;;;5052131;28;20198;-56
2023/11/07 10:14:11;;;;;;;3.67;0.80;;;15.30;99.90;;;;;;5051797;28;20213;-57
2023/11/07 10:16:40;;;;;;;3.30;1.17;;;15.30;99.90;;;;;;5051925;28;20209;-57
2023/11/07 10:19:07;;;;;;;3.70;1.83;;;15.40;99.90;;;;;;5128129;22;20250;-57
2023/11/07 10:21:36;;;;;;;1.37;1.10;;;15.50;99.90;;;;;;5112002;28;20254;-57
2023/11/07 10:24:06;;;;;;;0.83;0.77;;;15.60;99.90;;;;;;5111977;28;20214;-56
2023/11/07 10:26:32;;;;;;;0.93;0.73;;;15.60;99.90;;;;;;5103853;28;20590;-57
2023/11/07 10:29:12;;;;;;;1.37;0.80;;;15.50;99.90;;;;;;5094088;28;20279;-57
2023/11/07 10:31:40;;;;;;;0.90;0.60;;;15.60;99.90;;;;;;5091255;28;20207;-57
2023/11/07 10:34:13;;;;;;;1.60;0.70;;;15.70;99.90;;;;;;5091119;28;20303;-57
2023/11/07 10:36:40;;;;;;;2.10;0.70;;;15.70;99.90;;;;;;5091563;28;20212;-56
2023/11/07 10:39:16;;;;;;;2.37;0.93;;;15.80;99.90;;;;;;5091391;28;20228;-57
2023/11/07 10:41:44;;;;;;;1.90;0.70;;;15.90;99.90;;;;;;5091388;28;20224;-56
2023/11/07 10:44:23;;;;;;;3.27;1.10;;;15.80;99.90;;;;;;5090761;28;20241;-57
2023/11/07 10:46:51;;;;;;;2.10;0.50;;;15.80;99.90;;;;;;5091462;28;20231;-57
2023/11/07 10:49:19;;;;;;;1.03;0.83;;;15.90;99.90;;;;;;5091004;28;20231;-57
2023/11/07 10:51:45;;;;;;;1.47;0.73;;;15.90;99.90;;;;;;5091464;28;20309;-58
2023/11/07 10:54:14;;;;;;;0.90;0.53;;;16.00;99.90;;;;;;5090483;28;20658;-58
2023/11/07 10:56:44;;;;;;;3.47;1.35;;;16.00;99.90;;;;;;5090727;28;20211;-57
2023/11/07 10:59:16;;;;;;;0.60;0.40;;;16.00;99.90;;;;;;5091088;28;20256;-58
2023/11/07 11:01:45;;;;;;;2.27;0.50;;;15.90;99.90;;;;;;5091165;28;20224;-55
2023/11/07 11:04:12;;;;;;;1.17;0.60;;;15.90;99.90;;;;;;5090833;28;20212;-58
2023/11/07 11:06:42;;;;;;;1.07;0.53;;;15.70;99.90;;;;;;5090882;28;20289;-57
2023/11/07 11:09:11;;;;;;;0.70;0.60;;;15.60;99.90;;;;;;5090643;28;20723;-57
2023/11/07 11:11:40;;;;;;;1.97;0.70;;;15.60;99.90;;;;;;5091030;28;20201;-57
2023/11/07 11:14:09;;;;;;;0.80;0.40;;;15.50;99.90;;;;;;5090570;28;20397;-57
2023/11/07 11:16:37;;;;;;;1.90;0.70;;;15.40;99.90;;;;;;5090922;28;20240;-58
2023/11/07 11:19:19;;;;;;;0.90;0.40;;;15.30;99.90;;;;;;5090197;28;20231;-58
2023/11/07 11:21:54;;;;;;;0.53;0.37;;;15.20;99.90;;;;;;5090628;28;20862;-58
2023/11/07 11:24:32;;;;;;;0.67;0.20;;;15.10;99.90;;;;;;5090542;28;20307;-58
2023/11/07 11:27:11;;;;;;;0.97;0.60;;;15.00;99.90;;;;;;5090719;28;20723;-62
2023/11/07 11:29:45;;;;;;;1.70;0.80;;;14.80;99.90;;;;;;5090648;28;20580;-60
2023/11/07 11:32:26;;;;;;;2.13;0.70;;;14.80;99.90;;;;;;5089787;28;20298;-57
2023/11/07 11:34:57;;;;;;;1.93;0.33;;;14.70;99.90;;;;;;5090807;28;20215;-62
2023/11/07 11:37:25;;;;;;;1.47;0.50;;;14.60;99.90;;;;;;5090483;28;20270;-59
2023/11/07 11:39:52;;;;;;;2.33;0.97;;;14.60;99.90;;;;;;5090615;28;20397;-61
2023/11/07 11:42:20;;;;;;;2.93;0.50;;;14.40;99.90;;;;;;5089771;28;20307;-62
2023/11/07 11:45:20;;;;;;;2.83;0.87;;;14.30;99.90;;;;;;5090969;28;20222;-61
2023/11/07 11:47:51;;;;;;;1.97;0.97;;;14.20;99.90;;;;;;5088319;28;20247;-63
2023/11/07 11:50:19;;;;;;;1.43;0.40;;;14.20;99.90;;;;;;5094413;28;20215;-62
2023/11/07 11:52:46;;;;;;;1.90;0.70;;;14.10;99.90;;;;;;5094299;28;20219;-62
2023/11/07 11:55:15;;;;;;;1.20;0.70;;;14.20;99.90;;;;;;5094089;28;20220;-62
2023/11/07 11:58:16;;;;;;;1.17;0.57;;;14.30;99.90;;;;;;5093677;28;20727;-63
2023/11/07 12:00:45;;;;;;;1.87;0.60;;;14.50;99.90;;;;;;5086930;28;20279;-60
2023/11/07 12:03:18;;;;;;;1.13;0.60;;;14.60;99.90;;;;;;5094133;28;20649;-60
2023/11/07 12:06:02;;;;;;;0.87;0.60;;;14.70;99.90;;;;;;5087740;28;20665;-58
2023/11/07 12:08:41;;;;;;;2.07;1.20;;;14.70;99.90;;;;;;5093961;28;20228;-59
2023/11/07 12:11:07;;;;;;;1.13;0.40;;;14.70;99.90;;;;;;5094723;28;20212;-60
2023/11/07 12:13:36;;;;;;;0.63;0.40;;;14.80;99.90;;;;;;5085728;28;20204;-59
2023/11/07 12:16:14;;;;;;;1.20;0.50;;;14.90;99.90;;;;;;5094150;28;20201;-58
2023/11/07 12:18:41;;;;;;;0.70;0.43;;;15.00;99.90;;;;;;5086966;28;20240;-59
2023/11/07 12:21:09;;;;;;;0.40;0.30;;;15.00;99.90;;;;;;5094266;28;20224;-59
2023/11/07 12:23:36;;;;;;;0.30;0.30;;;15.10;99.90;;;;;;5085888;28;20227;-58
2023/11/07 12:26:02;;;;;;;4.23;3.00;;;15.10;99.90;;;;;;5094313;28;20312;-58
2023/11/07 12:28:29;;;;;;;1.30;0.50;;;15.20;99.90;;;;;;5093795;28;20922;-57
2023/11/07 12:30:58;;;;;;;0.93;0.60;;;15.30;99.90;;;;;;5094175;28;20632;-58
2023/11/07 12:33:24;;;;;;;2.70;0.40;;;15.30;99.90;;;;;;5093648;28;20207;-58
2023/11/07 12:35:54;;;;;;;1.57;0.77;;;15.40;99.90;;;;;;5093989;28;20232;-57
2023/11/07 12:38:22;;;;;;;0.43;0.33;;;15.50;99.90;;;;;;5093499;28;20228;-60
2023/11/07 12:40:49;;;;;;;0.70;0.60;;;15.60;99.90;;;;;;5093561;28;20220;-57
2023/11/07 12:43:16;;;;;;;1.55;0.40;;;15.60;99.90;;;;;;5093336;28;20212;-57
2023/11/07 12:45:45;;;;;;;0.60;0.50;;;15.60;99.90;;;;;;5093657;28;20202;-57
2023/11/07 12:48:13;;;;;;;2.20;0.68;;;15.60;99.90;;;;;;5093509;28;20343;-56
2023/11/07 12:50:44;;;;;;;0.80;0.60;;;15.50;99.90;;;;;;5093407;28;20288;-58
2023/11/07 12:53:12;;;;;;;1.02;0.60;;;15.60;99.90;;;;;;5093458;28;20300;-57
2023/11/07 12:55:39;;;;;;;2.90;0.98;;;15.70;99.90;;;;;;5093752;28;20208;-58